SDF weather

Louisville International Standiford Field
Louisville, Kentucky, United States

Public forecast

Using degrees Fahrenheit for public forecast. Weather courtesy of forecast.io.

METAR (pilot weather report)

Retrieved 2019/06/26 22:56 UTC (1 hour ago):

KSDF 262256Z 17005G14KT 10SM FEW055 BKN250 32/18 A3008 RMK AO2 SLP180 T03170183

TAF (pilot weather forecast)

Retrieved 2019/06/26 18:22 UTC (6 hours ago):

TAF KSDF 261720Z 2618/2724 28006KT P6SM SCT040 SCT250 FM270100 19005KT P6SM SCT250